<?xml version="1.0" encoding="UTF-8" standalone="no" ?>
<gpx xmlns="http://www.topografix.com/GPX/1/1" xmlns:xsi="http://www.w3.org/2001/XMLSchema-instance" xsi:schemaLocation="http://www.topografix.com/GPX/1/1 http://www.topografix.com/GPX/1/1/gpx.xsd" version="1.1" creator="VisuGPX - https://www.visugpx.com">
  <metadata>
    <name>FEURS - 25 JANV 25</name>
    <desc><![CDATA[FEURS - SALVIZINET - COUTTANCE - ROZIER EN DONZY]]></desc>
  </metadata>
  <trk>
    <name><![CDATA[Trace 1769334199000]]></name>
    <trkseg>
      <trkpt lat="45.75287" lon="4.22642">
        <ele>381.1</ele>
        <time>2026-01-25T09:43:19.000Z</time>
      </trkpt>
      <trkpt lat="45.75267" lon="4.22664">
        <ele>388.2</ele>
        <time>2026-01-25T09:43:49.000Z</time>
      </trkpt>
      <trkpt lat="45.75225" lon="4.22677">
        <ele>389.4</ele>
        <time>2026-01-25T09:44:19.000Z</time>
      </trkpt>
      <trkpt lat="45.75203" lon="4.227">
        <ele>388.5</ele>
        <time>2026-01-25T09:44:49.000Z</time>
      </trkpt>
      <trkpt lat="45.75169" lon="4.22732">
        <ele>387.4</ele>
        <time>2026-01-25T09:45:19.000Z</time>
      </trkpt>
      <trkpt lat="45.7516" lon="4.22737">
        <ele>389.4</ele>
        <time>2026-01-25T09:46:27.000Z</time>
      </trkpt>
      <trkpt lat="45.75122" lon="4.22729">
        <ele>388.5</ele>
        <time>2026-01-25T09:46:57.000Z</time>
      </trkpt>
      <trkpt lat="45.75095" lon="4.22761">
        <ele>390.4</ele>
        <time>2026-01-25T09:47:27.000Z</time>
      </trkpt>
      <trkpt lat="45.75092" lon="4.22821">
        <ele>391.1</ele>
        <time>2026-01-25T09:47:57.000Z</time>
      </trkpt>
      <trkpt lat="45.75084" lon="4.22875">
        <ele>391.2</ele>
        <time>2026-01-25T09:48:27.000Z</time>
      </trkpt>
      <trkpt lat="45.75077" lon="4.22941">
        <ele>389.3</ele>
        <time>2026-01-25T09:48:57.000Z</time>
      </trkpt>
      <trkpt lat="45.75061" lon="4.22999">
        <ele>390.4</ele>
        <time>2026-01-25T09:49:27.000Z</time>
      </trkpt>
      <trkpt lat="45.75056" lon="4.23063">
        <ele>390.5</ele>
        <time>2026-01-25T09:49:57.000Z</time>
      </trkpt>
      <trkpt lat="45.7505" lon="4.23122">
        <ele>391.3</ele>
        <time>2026-01-25T09:50:27.000Z</time>
      </trkpt>
      <trkpt lat="45.75057" lon="4.23185">
        <ele>389.6</ele>
        <time>2026-01-25T09:50:57.000Z</time>
      </trkpt>
      <trkpt lat="45.75059" lon="4.23211">
        <ele>393.7</ele>
        <time>2026-01-25T09:51:27.000Z</time>
      </trkpt>
      <trkpt lat="45.75076" lon="4.23245">
        <ele>389.6</ele>
        <time>2026-01-25T09:51:57.000Z</time>
      </trkpt>
      <trkpt lat="45.75098" lon="4.23295">
        <ele>389.9</ele>
        <time>2026-01-25T09:52:27.000Z</time>
      </trkpt>
      <trkpt lat="45.75117" lon="4.23346">
        <ele>389.7</ele>
        <time>2026-01-25T09:52:57.000Z</time>
      </trkpt>
      <trkpt lat="45.7514" lon="4.23399">
        <ele>389.8</ele>
        <time>2026-01-25T09:53:27.000Z</time>
      </trkpt>
      <trkpt lat="45.75162" lon="4.23453">
        <ele>390.7</ele>
        <time>2026-01-25T09:53:57.000Z</time>
      </trkpt>
      <trkpt lat="45.75184" lon="4.23507">
        <ele>391</ele>
        <time>2026-01-25T09:54:27.000Z</time>
      </trkpt>
      <trkpt lat="45.75207" lon="4.23559">
        <ele>391.8</ele>
        <time>2026-01-25T09:54:57.000Z</time>
      </trkpt>
      <trkpt lat="45.75228" lon="4.23613">
        <ele>392.4</ele>
        <time>2026-01-25T09:55:27.000Z</time>
      </trkpt>
      <trkpt lat="45.75243" lon="4.2367">
        <ele>392.7</ele>
        <time>2026-01-25T09:55:57.000Z</time>
      </trkpt>
      <trkpt lat="45.75246" lon="4.23729">
        <ele>394.4</ele>
        <time>2026-01-25T09:56:27.000Z</time>
      </trkpt>
      <trkpt lat="45.75255" lon="4.23788">
        <ele>395</ele>
        <time>2026-01-25T09:56:57.000Z</time>
      </trkpt>
      <trkpt lat="45.75226" lon="4.23839">
        <ele>393.7</ele>
        <time>2026-01-25T09:57:27.000Z</time>
      </trkpt>
      <trkpt lat="45.75197" lon="4.2389">
        <ele>397</ele>
        <time>2026-01-25T09:57:57.000Z</time>
      </trkpt>
      <trkpt lat="45.75169" lon="4.23937">
        <ele>396.2</ele>
        <time>2026-01-25T09:58:27.000Z</time>
      </trkpt>
      <trkpt lat="45.7514" lon="4.23985">
        <ele>396.5</ele>
        <time>2026-01-25T09:58:57.000Z</time>
      </trkpt>
      <trkpt lat="45.7512" lon="4.24039">
        <ele>396.3</ele>
        <time>2026-01-25T09:59:27.000Z</time>
      </trkpt>
      <trkpt lat="45.75115" lon="4.24101">
        <ele>396.4</ele>
        <time>2026-01-25T09:59:57.000Z</time>
      </trkpt>
      <trkpt lat="45.75111" lon="4.24163">
        <ele>396.2</ele>
        <time>2026-01-25T10:00:27.000Z</time>
      </trkpt>
      <trkpt lat="45.75107" lon="4.24225">
        <ele>396</ele>
        <time>2026-01-25T10:00:57.000Z</time>
      </trkpt>
      <trkpt lat="45.75104" lon="4.24289">
        <ele>397.2</ele>
        <time>2026-01-25T10:01:27.000Z</time>
      </trkpt>
      <trkpt lat="45.751" lon="4.24354">
        <ele>397.3</ele>
        <time>2026-01-25T10:01:57.000Z</time>
      </trkpt>
      <trkpt lat="45.75094" lon="4.24417">
        <ele>398.5</ele>
        <time>2026-01-25T10:02:27.000Z</time>
      </trkpt>
      <trkpt lat="45.75097" lon="4.24481">
        <ele>398.1</ele>
        <time>2026-01-25T10:02:57.000Z</time>
      </trkpt>
      <trkpt lat="45.75102" lon="4.24543">
        <ele>396.9</ele>
        <time>2026-01-25T10:03:27.000Z</time>
      </trkpt>
      <trkpt lat="45.75106" lon="4.24607">
        <ele>397.7</ele>
        <time>2026-01-25T10:03:57.000Z</time>
      </trkpt>
      <trkpt lat="45.75112" lon="4.24671">
        <ele>399.5</ele>
        <time>2026-01-25T10:04:27.000Z</time>
      </trkpt>
      <trkpt lat="45.75125" lon="4.24734">
        <ele>401.6</ele>
        <time>2026-01-25T10:04:57.000Z</time>
      </trkpt>
      <trkpt lat="45.75136" lon="4.24794">
        <ele>401.6</ele>
        <time>2026-01-25T10:05:27.000Z</time>
      </trkpt>
      <trkpt lat="45.75131" lon="4.24855">
        <ele>400.2</ele>
        <time>2026-01-25T10:05:57.000Z</time>
      </trkpt>
      <trkpt lat="45.75131" lon="4.24911">
        <ele>397.9</ele>
        <time>2026-01-25T10:06:27.000Z</time>
      </trkpt>
      <trkpt lat="45.75134" lon="4.24945">
        <ele>396.8</ele>
        <time>2026-01-25T10:06:57.000Z</time>
      </trkpt>
      <trkpt lat="45.75133" lon="4.25">
        <ele>396.9</ele>
        <time>2026-01-25T10:07:27.000Z</time>
      </trkpt>
      <trkpt lat="45.75131" lon="4.25056">
        <ele>397.4</ele>
        <time>2026-01-25T10:07:57.000Z</time>
      </trkpt>
      <trkpt lat="45.75129" lon="4.25111">
        <ele>399.5</ele>
        <time>2026-01-25T10:08:27.000Z</time>
      </trkpt>
      <trkpt lat="45.75121" lon="4.25164">
        <ele>398</ele>
        <time>2026-01-25T10:08:57.000Z</time>
      </trkpt>
      <trkpt lat="45.75112" lon="4.25218">
        <ele>396.6</ele>
        <time>2026-01-25T10:09:27.000Z</time>
      </trkpt>
      <trkpt lat="45.75097" lon="4.25261">
        <ele>396.9</ele>
        <time>2026-01-25T10:09:57.000Z</time>
      </trkpt>
      <trkpt lat="45.75081" lon="4.25317">
        <ele>394.5</ele>
        <time>2026-01-25T10:10:27.000Z</time>
      </trkpt>
      <trkpt lat="45.75063" lon="4.25374">
        <ele>395.2</ele>
        <time>2026-01-25T10:10:57.000Z</time>
      </trkpt>
      <trkpt lat="45.75043" lon="4.25426">
        <ele>395.5</ele>
        <time>2026-01-25T10:11:27.000Z</time>
      </trkpt>
      <trkpt lat="45.75073" lon="4.2543">
        <ele>398.3</ele>
        <time>2026-01-25T10:11:57.000Z</time>
      </trkpt>
      <trkpt lat="45.75113" lon="4.2545">
        <ele>398.6</ele>
        <time>2026-01-25T10:12:27.000Z</time>
      </trkpt>
      <trkpt lat="45.75143" lon="4.25465">
        <ele>398.9</ele>
        <time>2026-01-25T10:12:57.000Z</time>
      </trkpt>
      <trkpt lat="45.75185" lon="4.25488">
        <ele>400.9</ele>
        <time>2026-01-25T10:13:27.000Z</time>
      </trkpt>
      <trkpt lat="45.75224" lon="4.25509">
        <ele>401.3</ele>
        <time>2026-01-25T10:13:57.000Z</time>
      </trkpt>
      <trkpt lat="45.75264" lon="4.2553">
        <ele>402.9</ele>
        <time>2026-01-25T10:14:27.000Z</time>
      </trkpt>
      <trkpt lat="45.75304" lon="4.25552">
        <ele>403.8</ele>
        <time>2026-01-25T10:14:57.000Z</time>
      </trkpt>
      <trkpt lat="45.75342" lon="4.25581">
        <ele>405.4</ele>
        <time>2026-01-25T10:15:27.000Z</time>
      </trkpt>
      <trkpt lat="45.75369" lon="4.25629">
        <ele>406</ele>
        <time>2026-01-25T10:15:57.000Z</time>
      </trkpt>
      <trkpt lat="45.75397" lon="4.25677">
        <ele>406.2</ele>
        <time>2026-01-25T10:16:27.000Z</time>
      </trkpt>
      <trkpt lat="45.75425" lon="4.25727">
        <ele>407.9</ele>
        <time>2026-01-25T10:16:57.000Z</time>
      </trkpt>
      <trkpt lat="45.75448" lon="4.25777">
        <ele>408.2</ele>
        <time>2026-01-25T10:17:27.000Z</time>
      </trkpt>
      <trkpt lat="45.7547" lon="4.25831">
        <ele>409.2</ele>
        <time>2026-01-25T10:17:57.000Z</time>
      </trkpt>
      <trkpt lat="45.75491" lon="4.25882">
        <ele>410</ele>
        <time>2026-01-25T10:18:27.000Z</time>
      </trkpt>
      <trkpt lat="45.75522" lon="4.25921">
        <ele>408.9</ele>
        <time>2026-01-25T10:18:57.000Z</time>
      </trkpt>
      <trkpt lat="45.7555" lon="4.25957">
        <ele>413</ele>
        <time>2026-01-25T10:19:27.000Z</time>
      </trkpt>
      <trkpt lat="45.75572" lon="4.25993">
        <ele>412.1</ele>
        <time>2026-01-25T10:19:57.000Z</time>
      </trkpt>
      <trkpt lat="45.75601" lon="4.26038">
        <ele>411</ele>
        <time>2026-01-25T10:20:27.000Z</time>
      </trkpt>
      <trkpt lat="45.75629" lon="4.26081">
        <ele>412.9</ele>
        <time>2026-01-25T10:20:57.000Z</time>
      </trkpt>
      <trkpt lat="45.75658" lon="4.26126">
        <ele>414.1</ele>
        <time>2026-01-25T10:21:27.000Z</time>
      </trkpt>
      <trkpt lat="45.75675" lon="4.26177">
        <ele>414.7</ele>
        <time>2026-01-25T10:21:57.000Z</time>
      </trkpt>
      <trkpt lat="45.75695" lon="4.26233">
        <ele>417.1</ele>
        <time>2026-01-25T10:22:27.000Z</time>
      </trkpt>
      <trkpt lat="45.75715" lon="4.26286">
        <ele>419</ele>
        <time>2026-01-25T10:22:57.000Z</time>
      </trkpt>
      <trkpt lat="45.75737" lon="4.26344">
        <ele>420.5</ele>
        <time>2026-01-25T10:23:27.000Z</time>
      </trkpt>
      <trkpt lat="45.75755" lon="4.26402">
        <ele>423.6</ele>
        <time>2026-01-25T10:23:57.000Z</time>
      </trkpt>
      <trkpt lat="45.75769" lon="4.2646">
        <ele>421.5</ele>
        <time>2026-01-25T10:24:27.000Z</time>
      </trkpt>
      <trkpt lat="45.75783" lon="4.26518">
        <ele>421.8</ele>
        <time>2026-01-25T10:24:57.000Z</time>
      </trkpt>
      <trkpt lat="45.75802" lon="4.26572">
        <ele>423.9</ele>
        <time>2026-01-25T10:25:27.000Z</time>
      </trkpt>
      <trkpt lat="45.75822" lon="4.26626">
        <ele>425.2</ele>
        <time>2026-01-25T10:25:57.000Z</time>
      </trkpt>
      <trkpt lat="45.75846" lon="4.26676">
        <ele>426.1</ele>
        <time>2026-01-25T10:26:27.000Z</time>
      </trkpt>
      <trkpt lat="45.75881" lon="4.26713">
        <ele>428.9</ele>
        <time>2026-01-25T10:26:57.000Z</time>
      </trkpt>
      <trkpt lat="45.75922" lon="4.26735">
        <ele>431.6</ele>
        <time>2026-01-25T10:27:27.000Z</time>
      </trkpt>
      <trkpt lat="45.75957" lon="4.26769">
        <ele>433.4</ele>
        <time>2026-01-25T10:27:57.000Z</time>
      </trkpt>
      <trkpt lat="45.75974" lon="4.26824">
        <ele>436.3</ele>
        <time>2026-01-25T10:28:27.000Z</time>
      </trkpt>
      <trkpt lat="45.75989" lon="4.26874">
        <ele>439.2</ele>
        <time>2026-01-25T10:28:57.000Z</time>
      </trkpt>
      <trkpt lat="45.76013" lon="4.26921">
        <ele>442.9</ele>
        <time>2026-01-25T10:29:27.000Z</time>
      </trkpt>
      <trkpt lat="45.76004" lon="4.26963">
        <ele>443.6</ele>
        <time>2026-01-25T10:29:57.000Z</time>
      </trkpt>
      <trkpt lat="45.7597" lon="4.26998">
        <ele>443.1</ele>
        <time>2026-01-25T10:30:27.000Z</time>
      </trkpt>
      <trkpt lat="45.75935" lon="4.27034">
        <ele>443.8</ele>
        <time>2026-01-25T10:30:57.000Z</time>
      </trkpt>
      <trkpt lat="45.75934" lon="4.27078">
        <ele>447.6</ele>
        <time>2026-01-25T10:31:27.000Z</time>
      </trkpt>
      <trkpt lat="45.75967" lon="4.27116">
        <ele>455.7</ele>
        <time>2026-01-25T10:31:57.000Z</time>
      </trkpt>
      <trkpt lat="45.75997" lon="4.27153">
        <ele>462.5</ele>
        <time>2026-01-25T10:32:27.000Z</time>
      </trkpt>
      <trkpt lat="45.76009" lon="4.27189">
        <ele>464.9</ele>
        <time>2026-01-25T10:32:57.000Z</time>
      </trkpt>
      <trkpt lat="45.75987" lon="4.27243">
        <ele>465.5</ele>
        <time>2026-01-25T10:33:27.000Z</time>
      </trkpt>
      <trkpt lat="45.75978" lon="4.27301">
        <ele>467.3</ele>
        <time>2026-01-25T10:33:57.000Z</time>
      </trkpt>
      <trkpt lat="45.75964" lon="4.27353">
        <ele>470.6</ele>
        <time>2026-01-25T10:34:27.000Z</time>
      </trkpt>
      <trkpt lat="45.75963" lon="4.27362">
        <ele>471.5</ele>
        <time>2026-01-25T10:35:17.000Z</time>
      </trkpt>
      <trkpt lat="45.75956" lon="4.27382">
        <ele>468.9</ele>
        <time>2026-01-25T10:35:47.000Z</time>
      </trkpt>
      <trkpt lat="45.75956" lon="4.27386">
        <ele>465.9</ele>
        <time>2026-01-25T10:36:46.000Z</time>
      </trkpt>
      <trkpt lat="45.75954" lon="4.27371">
        <ele>467.6</ele>
        <time>2026-01-25T10:37:16.000Z</time>
      </trkpt>
      <trkpt lat="45.75955" lon="4.27374">
        <ele>468.7</ele>
        <time>2026-01-25T10:39:20.000Z</time>
      </trkpt>
      <trkpt lat="45.75953" lon="4.27379">
        <ele>467.3</ele>
        <time>2026-01-25T10:46:05.000Z</time>
      </trkpt>
      <trkpt lat="45.75954" lon="4.27378">
        <ele>469.5</ele>
        <time>2026-01-25T10:48:00.000Z</time>
      </trkpt>
      <trkpt lat="45.75944" lon="4.27404">
        <ele>465.9</ele>
        <time>2026-01-25T10:48:30.000Z</time>
      </trkpt>
      <trkpt lat="45.75917" lon="4.27452">
        <ele>463.4</ele>
        <time>2026-01-25T10:49:00.000Z</time>
      </trkpt>
      <trkpt lat="45.75904" lon="4.27508">
        <ele>462</ele>
        <time>2026-01-25T10:49:30.000Z</time>
      </trkpt>
      <trkpt lat="45.75864" lon="4.27502">
        <ele>465.5</ele>
        <time>2026-01-25T10:50:00.000Z</time>
      </trkpt>
      <trkpt lat="45.75824" lon="4.27504">
        <ele>467.3</ele>
        <time>2026-01-25T10:50:30.000Z</time>
      </trkpt>
      <trkpt lat="45.75782" lon="4.27519">
        <ele>469.9</ele>
        <time>2026-01-25T10:51:00.000Z</time>
      </trkpt>
      <trkpt lat="45.75742" lon="4.27541">
        <ele>471</ele>
        <time>2026-01-25T10:51:30.000Z</time>
      </trkpt>
      <trkpt lat="45.75708" lon="4.27576">
        <ele>469.1</ele>
        <time>2026-01-25T10:52:00.000Z</time>
      </trkpt>
      <trkpt lat="45.75683" lon="4.27624">
        <ele>468.8</ele>
        <time>2026-01-25T10:52:30.000Z</time>
      </trkpt>
      <trkpt lat="45.75655" lon="4.2767">
        <ele>469.8</ele>
        <time>2026-01-25T10:53:00.000Z</time>
      </trkpt>
      <trkpt lat="45.75622" lon="4.27709">
        <ele>470.3</ele>
        <time>2026-01-25T10:53:30.000Z</time>
      </trkpt>
      <trkpt lat="45.75593" lon="4.27749">
        <ele>472.3</ele>
        <time>2026-01-25T10:54:00.000Z</time>
      </trkpt>
      <trkpt lat="45.75572" lon="4.27799">
        <ele>477.1</ele>
        <time>2026-01-25T10:54:30.000Z</time>
      </trkpt>
      <trkpt lat="45.7555" lon="4.27847">
        <ele>480.3</ele>
        <time>2026-01-25T10:55:00.000Z</time>
      </trkpt>
      <trkpt lat="45.75537" lon="4.27901">
        <ele>481.3</ele>
        <time>2026-01-25T10:55:30.000Z</time>
      </trkpt>
      <trkpt lat="45.7553" lon="4.27959">
        <ele>485.2</ele>
        <time>2026-01-25T10:56:00.000Z</time>
      </trkpt>
      <trkpt lat="45.75524" lon="4.28018">
        <ele>487.4</ele>
        <time>2026-01-25T10:56:30.000Z</time>
      </trkpt>
      <trkpt lat="45.75499" lon="4.28061">
        <ele>488.9</ele>
        <time>2026-01-25T10:57:00.000Z</time>
      </trkpt>
      <trkpt lat="45.75457" lon="4.28076">
        <ele>487.8</ele>
        <time>2026-01-25T10:57:30.000Z</time>
      </trkpt>
      <trkpt lat="45.75416" lon="4.28094">
        <ele>485.1</ele>
        <time>2026-01-25T10:58:00.000Z</time>
      </trkpt>
      <trkpt lat="45.75376" lon="4.28114">
        <ele>482.5</ele>
        <time>2026-01-25T10:58:30.000Z</time>
      </trkpt>
      <trkpt lat="45.75336" lon="4.28135">
        <ele>480.7</ele>
        <time>2026-01-25T10:59:00.000Z</time>
      </trkpt>
      <trkpt lat="45.75308" lon="4.2818">
        <ele>477</ele>
        <time>2026-01-25T10:59:30.000Z</time>
      </trkpt>
      <trkpt lat="45.75288" lon="4.2823">
        <ele>472.1</ele>
        <time>2026-01-25T11:00:00.000Z</time>
      </trkpt>
      <trkpt lat="45.75251" lon="4.28246">
        <ele>465.5</ele>
        <time>2026-01-25T11:00:30.000Z</time>
      </trkpt>
      <trkpt lat="45.75239" lon="4.28282">
        <ele>460</ele>
        <time>2026-01-25T11:01:00.000Z</time>
      </trkpt>
      <trkpt lat="45.75281" lon="4.28293">
        <ele>459.2</ele>
        <time>2026-01-25T11:01:30.000Z</time>
      </trkpt>
      <trkpt lat="45.75321" lon="4.28317">
        <ele>457.8</ele>
        <time>2026-01-25T11:02:00.000Z</time>
      </trkpt>
      <trkpt lat="45.75355" lon="4.28355">
        <ele>456.6</ele>
        <time>2026-01-25T11:02:30.000Z</time>
      </trkpt>
      <trkpt lat="45.75372" lon="4.28402">
        <ele>448</ele>
        <time>2026-01-25T11:03:00.000Z</time>
      </trkpt>
      <trkpt lat="45.75413" lon="4.28413">
        <ele>443.5</ele>
        <time>2026-01-25T11:03:30.000Z</time>
      </trkpt>
      <trkpt lat="45.75456" lon="4.28414">
        <ele>439.4</ele>
        <time>2026-01-25T11:04:00.000Z</time>
      </trkpt>
      <trkpt lat="45.75494" lon="4.28436">
        <ele>437.5</ele>
        <time>2026-01-25T11:04:30.000Z</time>
      </trkpt>
      <trkpt lat="45.75499" lon="4.28481">
        <ele>433.1</ele>
        <time>2026-01-25T11:05:00.000Z</time>
      </trkpt>
      <trkpt lat="45.7546" lon="4.28504">
        <ele>428.5</ele>
        <time>2026-01-25T11:05:30.000Z</time>
      </trkpt>
      <trkpt lat="45.75424" lon="4.28505">
        <ele>428</ele>
        <time>2026-01-25T11:06:00.000Z</time>
      </trkpt>
      <trkpt lat="45.75415" lon="4.28507">
        <ele>427.1</ele>
        <time>2026-01-25T11:06:39.000Z</time>
      </trkpt>
      <trkpt lat="45.75448" lon="4.28516">
        <ele>430.9</ele>
        <time>2026-01-25T11:07:09.000Z</time>
      </trkpt>
      <trkpt lat="45.75448" lon="4.28517">
        <ele>430.4</ele>
        <time>2026-01-25T11:07:56.000Z</time>
      </trkpt>
      <trkpt lat="45.7548" lon="4.28536">
        <ele>431.2</ele>
        <time>2026-01-25T11:08:26.000Z</time>
      </trkpt>
      <trkpt lat="45.75525" lon="4.28542">
        <ele>436.9</ele>
        <time>2026-01-25T11:08:56.000Z</time>
      </trkpt>
      <trkpt lat="45.75567" lon="4.28562">
        <ele>438.9</ele>
        <time>2026-01-25T11:09:26.000Z</time>
      </trkpt>
      <trkpt lat="45.75609" lon="4.2857">
        <ele>439.6</ele>
        <time>2026-01-25T11:09:56.000Z</time>
      </trkpt>
      <trkpt lat="45.7563" lon="4.28581">
        <ele>433.4</ele>
        <time>2026-01-25T11:10:26.000Z</time>
      </trkpt>
      <trkpt lat="45.75631" lon="4.28583">
        <ele>433.1</ele>
        <time>2026-01-25T11:11:26.000Z</time>
      </trkpt>
      <trkpt lat="45.75659" lon="4.28581">
        <ele>436.6</ele>
        <time>2026-01-25T11:11:56.000Z</time>
      </trkpt>
      <trkpt lat="45.75661" lon="4.28581">
        <ele>438</ele>
        <time>2026-01-25T11:13:35.000Z</time>
      </trkpt>
      <trkpt lat="45.75698" lon="4.28592">
        <ele>436.4</ele>
        <time>2026-01-25T11:14:05.000Z</time>
      </trkpt>
      <trkpt lat="45.7574" lon="4.286">
        <ele>432.7</ele>
        <time>2026-01-25T11:14:35.000Z</time>
      </trkpt>
      <trkpt lat="45.75776" lon="4.28613">
        <ele>429.5</ele>
        <time>2026-01-25T11:15:05.000Z</time>
      </trkpt>
      <trkpt lat="45.75802" lon="4.2866">
        <ele>433.2</ele>
        <time>2026-01-25T11:15:35.000Z</time>
      </trkpt>
      <trkpt lat="45.75797" lon="4.28722">
        <ele>435.7</ele>
        <time>2026-01-25T11:16:05.000Z</time>
      </trkpt>
      <trkpt lat="45.75811" lon="4.28777">
        <ele>440.4</ele>
        <time>2026-01-25T11:16:35.000Z</time>
      </trkpt>
      <trkpt lat="45.75832" lon="4.288">
        <ele>439.3</ele>
        <time>2026-01-25T11:17:05.000Z</time>
      </trkpt>
      <trkpt lat="45.75862" lon="4.28837">
        <ele>438.3</ele>
        <time>2026-01-25T11:17:35.000Z</time>
      </trkpt>
      <trkpt lat="45.75895" lon="4.28875">
        <ele>441.5</ele>
        <time>2026-01-25T11:18:05.000Z</time>
      </trkpt>
      <trkpt lat="45.75915" lon="4.28902">
        <ele>441.5</ele>
        <time>2026-01-25T11:18:35.000Z</time>
      </trkpt>
      <trkpt lat="45.75937" lon="4.28932">
        <ele>441.8</ele>
        <time>2026-01-25T11:19:05.000Z</time>
      </trkpt>
      <trkpt lat="45.75977" lon="4.28955">
        <ele>442.3</ele>
        <time>2026-01-25T11:19:35.000Z</time>
      </trkpt>
      <trkpt lat="45.76021" lon="4.28957">
        <ele>443.3</ele>
        <time>2026-01-25T11:20:05.000Z</time>
      </trkpt>
      <trkpt lat="45.76065" lon="4.28956">
        <ele>444.9</ele>
        <time>2026-01-25T11:20:35.000Z</time>
      </trkpt>
      <trkpt lat="45.76106" lon="4.28953">
        <ele>445</ele>
        <time>2026-01-25T11:21:05.000Z</time>
      </trkpt>
      <trkpt lat="45.7615" lon="4.2895">
        <ele>446.6</ele>
        <time>2026-01-25T11:21:35.000Z</time>
      </trkpt>
      <trkpt lat="45.76191" lon="4.28953">
        <ele>449</ele>
        <time>2026-01-25T11:22:05.000Z</time>
      </trkpt>
      <trkpt lat="45.76229" lon="4.28971">
        <ele>448.4</ele>
        <time>2026-01-25T11:22:35.000Z</time>
      </trkpt>
      <trkpt lat="45.76264" lon="4.29002">
        <ele>450.4</ele>
        <time>2026-01-25T11:23:05.000Z</time>
      </trkpt>
      <trkpt lat="45.76287" lon="4.29057">
        <ele>454.8</ele>
        <time>2026-01-25T11:23:35.000Z</time>
      </trkpt>
      <trkpt lat="45.76308" lon="4.29111">
        <ele>453.6</ele>
        <time>2026-01-25T11:24:05.000Z</time>
      </trkpt>
      <trkpt lat="45.76312" lon="4.29138">
        <ele>453.5</ele>
        <time>2026-01-25T11:24:35.000Z</time>
      </trkpt>
      <trkpt lat="45.76313" lon="4.29137">
        <ele>452.4</ele>
        <time>2026-01-25T11:25:23.000Z</time>
      </trkpt>
      <trkpt lat="45.76348" lon="4.29176">
        <ele>456.8</ele>
        <time>2026-01-25T11:25:53.000Z</time>
      </trkpt>
      <trkpt lat="45.76393" lon="4.29185">
        <ele>458</ele>
        <time>2026-01-25T11:26:23.000Z</time>
      </trkpt>
      <trkpt lat="45.76435" lon="4.29193">
        <ele>455.8</ele>
        <time>2026-01-25T11:26:53.000Z</time>
      </trkpt>
      <trkpt lat="45.76481" lon="4.29191">
        <ele>456.7</ele>
        <time>2026-01-25T11:27:23.000Z</time>
      </trkpt>
      <trkpt lat="45.7652" lon="4.29188">
        <ele>457.8</ele>
        <time>2026-01-25T11:27:53.000Z</time>
      </trkpt>
      <trkpt lat="45.76543" lon="4.29188">
        <ele>465.2</ele>
        <time>2026-01-25T11:28:23.000Z</time>
      </trkpt>
      <trkpt lat="45.76548" lon="4.29149">
        <ele>458.5</ele>
        <time>2026-01-25T11:28:53.000Z</time>
      </trkpt>
      <trkpt lat="45.7658" lon="4.29138">
        <ele>458.1</ele>
        <time>2026-01-25T11:29:23.000Z</time>
      </trkpt>
      <trkpt lat="45.76625" lon="4.29134">
        <ele>460.4</ele>
        <time>2026-01-25T11:29:53.000Z</time>
      </trkpt>
      <trkpt lat="45.76659" lon="4.29131">
        <ele>461.5</ele>
        <time>2026-01-25T11:30:23.000Z</time>
      </trkpt>
      <trkpt lat="45.76701" lon="4.2913">
        <ele>458.4</ele>
        <time>2026-01-25T11:30:53.000Z</time>
      </trkpt>
      <trkpt lat="45.76741" lon="4.29127">
        <ele>454.2</ele>
        <time>2026-01-25T11:31:23.000Z</time>
      </trkpt>
      <trkpt lat="45.76781" lon="4.29122">
        <ele>455.4</ele>
        <time>2026-01-25T11:31:53.000Z</time>
      </trkpt>
      <trkpt lat="45.7682" lon="4.29103">
        <ele>457</ele>
        <time>2026-01-25T11:32:23.000Z</time>
      </trkpt>
      <trkpt lat="45.7686" lon="4.29077">
        <ele>455.9</ele>
        <time>2026-01-25T11:32:53.000Z</time>
      </trkpt>
      <trkpt lat="45.76898" lon="4.29052">
        <ele>454.2</ele>
        <time>2026-01-25T11:33:23.000Z</time>
      </trkpt>
      <trkpt lat="45.76937" lon="4.29027">
        <ele>454</ele>
        <time>2026-01-25T11:33:53.000Z</time>
      </trkpt>
      <trkpt lat="45.76977" lon="4.29003">
        <ele>456.3</ele>
        <time>2026-01-25T11:34:23.000Z</time>
      </trkpt>
      <trkpt lat="45.77019" lon="4.28982">
        <ele>457.2</ele>
        <time>2026-01-25T11:34:53.000Z</time>
      </trkpt>
      <trkpt lat="45.77059" lon="4.28963">
        <ele>457.6</ele>
        <time>2026-01-25T11:35:23.000Z</time>
      </trkpt>
      <trkpt lat="45.77099" lon="4.28944">
        <ele>458.2</ele>
        <time>2026-01-25T11:35:53.000Z</time>
      </trkpt>
      <trkpt lat="45.77141" lon="4.2893">
        <ele>459.4</ele>
        <time>2026-01-25T11:36:23.000Z</time>
      </trkpt>
      <trkpt lat="45.77185" lon="4.28919">
        <ele>460.5</ele>
        <time>2026-01-25T11:36:53.000Z</time>
      </trkpt>
      <trkpt lat="45.7723" lon="4.2891">
        <ele>461.1</ele>
        <time>2026-01-25T11:37:23.000Z</time>
      </trkpt>
      <trkpt lat="45.77276" lon="4.28904">
        <ele>467.6</ele>
        <time>2026-01-25T11:37:53.000Z</time>
      </trkpt>
      <trkpt lat="45.77311" lon="4.28869">
        <ele>473.8</ele>
        <time>2026-01-25T11:38:23.000Z</time>
      </trkpt>
      <trkpt lat="45.77345" lon="4.28831">
        <ele>475.7</ele>
        <time>2026-01-25T11:38:53.000Z</time>
      </trkpt>
      <trkpt lat="45.77382" lon="4.28806">
        <ele>474.9</ele>
        <time>2026-01-25T11:39:23.000Z</time>
      </trkpt>
      <trkpt lat="45.77427" lon="4.28806">
        <ele>474.9</ele>
        <time>2026-01-25T11:39:53.000Z</time>
      </trkpt>
      <trkpt lat="45.77438" lon="4.28809">
        <ele>473.9</ele>
        <time>2026-01-25T11:40:23.000Z</time>
      </trkpt>
      <trkpt lat="45.77439" lon="4.28809">
        <ele>472</ele>
        <time>2026-01-25T11:41:22.000Z</time>
      </trkpt>
      <trkpt lat="45.77472" lon="4.28835">
        <ele>466.3</ele>
        <time>2026-01-25T11:41:52.000Z</time>
      </trkpt>
      <trkpt lat="45.7751" lon="4.28859">
        <ele>468.8</ele>
        <time>2026-01-25T11:42:22.000Z</time>
      </trkpt>
      <trkpt lat="45.7755" lon="4.28881">
        <ele>468.2</ele>
        <time>2026-01-25T11:42:52.000Z</time>
      </trkpt>
      <trkpt lat="45.77596" lon="4.28871">
        <ele>472.1</ele>
        <time>2026-01-25T11:43:22.000Z</time>
      </trkpt>
      <trkpt lat="45.77638" lon="4.28854">
        <ele>475.3</ele>
        <time>2026-01-25T11:43:52.000Z</time>
      </trkpt>
      <trkpt lat="45.77671" lon="4.28832">
        <ele>477.7</ele>
        <time>2026-01-25T11:44:22.000Z</time>
      </trkpt>
      <trkpt lat="45.77705" lon="4.28802">
        <ele>473.6</ele>
        <time>2026-01-25T11:44:52.000Z</time>
      </trkpt>
      <trkpt lat="45.77741" lon="4.28767">
        <ele>471.9</ele>
        <time>2026-01-25T11:45:22.000Z</time>
      </trkpt>
      <trkpt lat="45.77779" lon="4.28741">
        <ele>472.9</ele>
        <time>2026-01-25T11:45:52.000Z</time>
      </trkpt>
      <trkpt lat="45.77815" lon="4.28721">
        <ele>474</ele>
        <time>2026-01-25T11:46:22.000Z</time>
      </trkpt>
      <trkpt lat="45.77858" lon="4.2871">
        <ele>474.3</ele>
        <time>2026-01-25T11:46:52.000Z</time>
      </trkpt>
      <trkpt lat="45.77904" lon="4.28704">
        <ele>474.9</ele>
        <time>2026-01-25T11:47:22.000Z</time>
      </trkpt>
      <trkpt lat="45.77946" lon="4.28692">
        <ele>475.6</ele>
        <time>2026-01-25T11:47:52.000Z</time>
      </trkpt>
      <trkpt lat="45.77987" lon="4.2867">
        <ele>474.1</ele>
        <time>2026-01-25T11:48:22.000Z</time>
      </trkpt>
      <trkpt lat="45.78029" lon="4.28653">
        <ele>474.2</ele>
        <time>2026-01-25T11:48:52.000Z</time>
      </trkpt>
      <trkpt lat="45.78071" lon="4.2865">
        <ele>477.5</ele>
        <time>2026-01-25T11:49:22.000Z</time>
      </trkpt>
      <trkpt lat="45.78113" lon="4.28654">
        <ele>476.5</ele>
        <time>2026-01-25T11:49:52.000Z</time>
      </trkpt>
      <trkpt lat="45.78155" lon="4.28661">
        <ele>477.8</ele>
        <time>2026-01-25T11:50:22.000Z</time>
      </trkpt>
      <trkpt lat="45.78185" lon="4.28682">
        <ele>477.1</ele>
        <time>2026-01-25T11:50:52.000Z</time>
      </trkpt>
      <trkpt lat="45.78223" lon="4.28711">
        <ele>476.5</ele>
        <time>2026-01-25T11:51:22.000Z</time>
      </trkpt>
      <trkpt lat="45.7824" lon="4.28762">
        <ele>476.9</ele>
        <time>2026-01-25T11:51:52.000Z</time>
      </trkpt>
      <trkpt lat="45.78233" lon="4.28823">
        <ele>480.5</ele>
        <time>2026-01-25T11:52:22.000Z</time>
      </trkpt>
      <trkpt lat="45.78214" lon="4.28873">
        <ele>478</ele>
        <time>2026-01-25T11:52:52.000Z</time>
      </trkpt>
      <trkpt lat="45.78209" lon="4.28938">
        <ele>481.3</ele>
        <time>2026-01-25T11:53:22.000Z</time>
      </trkpt>
      <trkpt lat="45.78211" lon="4.28998">
        <ele>484</ele>
        <time>2026-01-25T11:53:52.000Z</time>
      </trkpt>
      <trkpt lat="45.78217" lon="4.29048">
        <ele>479.6</ele>
        <time>2026-01-25T11:54:22.000Z</time>
      </trkpt>
      <trkpt lat="45.78257" lon="4.29057">
        <ele>478.2</ele>
        <time>2026-01-25T11:54:52.000Z</time>
      </trkpt>
      <trkpt lat="45.78289" lon="4.29067">
        <ele>482</ele>
        <time>2026-01-25T11:55:22.000Z</time>
      </trkpt>
      <trkpt lat="45.78299" lon="4.29082">
        <ele>486.7</ele>
        <time>2026-01-25T11:55:52.000Z</time>
      </trkpt>
      <trkpt lat="45.78292" lon="4.29143">
        <ele>498.2</ele>
        <time>2026-01-25T11:56:22.000Z</time>
      </trkpt>
      <trkpt lat="45.78297" lon="4.29196">
        <ele>502.7</ele>
        <time>2026-01-25T11:56:52.000Z</time>
      </trkpt>
      <trkpt lat="45.783" lon="4.2923">
        <ele>506.6</ele>
        <time>2026-01-25T11:57:22.000Z</time>
      </trkpt>
      <trkpt lat="45.78301" lon="4.29235">
        <ele>507.4</ele>
        <time>2026-01-25T11:58:00.000Z</time>
      </trkpt>
      <trkpt lat="45.78302" lon="4.29275">
        <ele>509.4</ele>
        <time>2026-01-25T11:58:30.000Z</time>
      </trkpt>
      <trkpt lat="45.78308" lon="4.29318">
        <ele>513.3</ele>
        <time>2026-01-25T11:59:00.000Z</time>
      </trkpt>
      <trkpt lat="45.7834" lon="4.29317">
        <ele>515.1</ele>
        <time>2026-01-25T11:59:30.000Z</time>
      </trkpt>
      <trkpt lat="45.78366" lon="4.29339">
        <ele>528</ele>
        <time>2026-01-25T12:00:00.000Z</time>
      </trkpt>
      <trkpt lat="45.78397" lon="4.29343">
        <ele>529.8</ele>
        <time>2026-01-25T12:00:30.000Z</time>
      </trkpt>
      <trkpt lat="45.78428" lon="4.29337">
        <ele>532.1</ele>
        <time>2026-01-25T12:01:00.000Z</time>
      </trkpt>
      <trkpt lat="45.78466" lon="4.29334">
        <ele>534.2</ele>
        <time>2026-01-25T12:01:30.000Z</time>
      </trkpt>
      <trkpt lat="45.78506" lon="4.29329">
        <ele>537.1</ele>
        <time>2026-01-25T12:02:00.000Z</time>
      </trkpt>
      <trkpt lat="45.78546" lon="4.29323">
        <ele>539.7</ele>
        <time>2026-01-25T12:02:30.000Z</time>
      </trkpt>
      <trkpt lat="45.78589" lon="4.29319">
        <ele>543.2</ele>
        <time>2026-01-25T12:03:00.000Z</time>
      </trkpt>
      <trkpt lat="45.78624" lon="4.29319">
        <ele>545.6</ele>
        <time>2026-01-25T12:03:30.000Z</time>
      </trkpt>
      <trkpt lat="45.78662" lon="4.29313">
        <ele>548.6</ele>
        <time>2026-01-25T12:04:00.000Z</time>
      </trkpt>
      <trkpt lat="45.78701" lon="4.29321">
        <ele>549.5</ele>
        <time>2026-01-25T12:04:30.000Z</time>
      </trkpt>
      <trkpt lat="45.78709" lon="4.29324">
        <ele>550.7</ele>
        <time>2026-01-25T12:05:05.000Z</time>
      </trkpt>
      <trkpt lat="45.78735" lon="4.29331">
        <ele>553.2</ele>
        <time>2026-01-25T12:05:35.000Z</time>
      </trkpt>
      <trkpt lat="45.78775" lon="4.29341">
        <ele>555.7</ele>
        <time>2026-01-25T12:06:05.000Z</time>
      </trkpt>
      <trkpt lat="45.78817" lon="4.29353">
        <ele>557.1</ele>
        <time>2026-01-25T12:06:35.000Z</time>
      </trkpt>
      <trkpt lat="45.7885" lon="4.29386">
        <ele>560.5</ele>
        <time>2026-01-25T12:07:05.000Z</time>
      </trkpt>
      <trkpt lat="45.78883" lon="4.29422">
        <ele>565.3</ele>
        <time>2026-01-25T12:07:35.000Z</time>
      </trkpt>
      <trkpt lat="45.78918" lon="4.29455">
        <ele>568.6</ele>
        <time>2026-01-25T12:08:05.000Z</time>
      </trkpt>
      <trkpt lat="45.78957" lon="4.29476">
        <ele>570</ele>
        <time>2026-01-25T12:08:35.000Z</time>
      </trkpt>
      <trkpt lat="45.78997" lon="4.29494">
        <ele>569</ele>
        <time>2026-01-25T12:09:05.000Z</time>
      </trkpt>
      <trkpt lat="45.79038" lon="4.29513">
        <ele>568.2</ele>
        <time>2026-01-25T12:09:35.000Z</time>
      </trkpt>
      <trkpt lat="45.79079" lon="4.29531">
        <ele>572.4</ele>
        <time>2026-01-25T12:10:05.000Z</time>
      </trkpt>
      <trkpt lat="45.79117" lon="4.29556">
        <ele>576.4</ele>
        <time>2026-01-25T12:10:35.000Z</time>
      </trkpt>
      <trkpt lat="45.7915" lon="4.29584">
        <ele>582.5</ele>
        <time>2026-01-25T12:11:05.000Z</time>
      </trkpt>
      <trkpt lat="45.79178" lon="4.2961">
        <ele>585.4</ele>
        <time>2026-01-25T12:11:35.000Z</time>
      </trkpt>
      <trkpt lat="45.79196" lon="4.29662">
        <ele>587.5</ele>
        <time>2026-01-25T12:12:05.000Z</time>
      </trkpt>
      <trkpt lat="45.79227" lon="4.29701">
        <ele>590.8</ele>
        <time>2026-01-25T12:12:35.000Z</time>
      </trkpt>
      <trkpt lat="45.79259" lon="4.29717">
        <ele>599.8</ele>
        <time>2026-01-25T12:13:05.000Z</time>
      </trkpt>
      <trkpt lat="45.79292" lon="4.29737">
        <ele>595.6</ele>
        <time>2026-01-25T12:13:35.000Z</time>
      </trkpt>
      <trkpt lat="45.79318" lon="4.29777">
        <ele>597.6</ele>
        <time>2026-01-25T12:14:05.000Z</time>
      </trkpt>
      <trkpt lat="45.79312" lon="4.29809">
        <ele>592.3</ele>
        <time>2026-01-25T12:14:35.000Z</time>
      </trkpt>
      <trkpt lat="45.79309" lon="4.29805">
        <ele>585.8</ele>
        <time>2026-01-25T12:15:47.000Z</time>
      </trkpt>
      <trkpt lat="45.79309" lon="4.29797">
        <ele>588.3</ele>
        <time>2026-01-25T12:16:44.000Z</time>
      </trkpt>
      <trkpt lat="45.79303" lon="4.29798">
        <ele>582.3</ele>
        <time>2026-01-25T12:17:19.000Z</time>
      </trkpt>
      <trkpt lat="45.7931" lon="4.29796">
        <ele>580.5</ele>
        <time>2026-01-25T12:26:57.000Z</time>
      </trkpt>
      <trkpt lat="45.79312" lon="4.29801">
        <ele>579</ele>
        <time>2026-01-25T12:27:29.000Z</time>
      </trkpt>
      <trkpt lat="45.7931" lon="4.29797">
        <ele>577.1</ele>
        <time>2026-01-25T12:28:09.000Z</time>
      </trkpt>
      <trkpt lat="45.79311" lon="4.29797">
        <ele>573.7</ele>
        <time>2026-01-25T12:28:50.000Z</time>
      </trkpt>
      <trkpt lat="45.79312" lon="4.29796">
        <ele>569.6</ele>
        <time>2026-01-25T12:29:39.000Z</time>
      </trkpt>
      <trkpt lat="45.79312" lon="4.29801">
        <ele>574.3</ele>
        <time>2026-01-25T12:30:23.000Z</time>
      </trkpt>
      <trkpt lat="45.79315" lon="4.29801">
        <ele>577.2</ele>
        <time>2026-01-25T12:31:06.000Z</time>
      </trkpt>
      <trkpt lat="45.79306" lon="4.29798">
        <ele>581.6</ele>
        <time>2026-01-25T12:31:36.000Z</time>
      </trkpt>
      <trkpt lat="45.79309" lon="4.29792">
        <ele>584</ele>
        <time>2026-01-25T12:32:06.000Z</time>
      </trkpt>
      <trkpt lat="45.79316" lon="4.2976">
        <ele>593.3</ele>
        <time>2026-01-25T12:32:36.000Z</time>
      </trkpt>
      <trkpt lat="45.79287" lon="4.29724">
        <ele>594.8</ele>
        <time>2026-01-25T12:33:06.000Z</time>
      </trkpt>
      <trkpt lat="45.79267" lon="4.29693">
        <ele>594</ele>
        <time>2026-01-25T12:33:36.000Z</time>
      </trkpt>
      <trkpt lat="45.79293" lon="4.29662">
        <ele>594.3</ele>
        <time>2026-01-25T12:34:06.000Z</time>
      </trkpt>
      <trkpt lat="45.79308" lon="4.29608">
        <ele>581.1</ele>
        <time>2026-01-25T12:34:36.000Z</time>
      </trkpt>
      <trkpt lat="45.79318" lon="4.29555">
        <ele>576.2</ele>
        <time>2026-01-25T12:35:06.000Z</time>
      </trkpt>
      <trkpt lat="45.79326" lon="4.29492">
        <ele>574.1</ele>
        <time>2026-01-25T12:35:36.000Z</time>
      </trkpt>
      <trkpt lat="45.79337" lon="4.29432">
        <ele>572.8</ele>
        <time>2026-01-25T12:36:06.000Z</time>
      </trkpt>
      <trkpt lat="45.79352" lon="4.29373">
        <ele>571</ele>
        <time>2026-01-25T12:36:36.000Z</time>
      </trkpt>
      <trkpt lat="45.79374" lon="4.29325">
        <ele>571.7</ele>
        <time>2026-01-25T12:37:06.000Z</time>
      </trkpt>
      <trkpt lat="45.79378" lon="4.29263">
        <ele>566.4</ele>
        <time>2026-01-25T12:37:36.000Z</time>
      </trkpt>
      <trkpt lat="45.79382" lon="4.29258">
        <ele>565.9</ele>
        <time>2026-01-25T12:38:55.000Z</time>
      </trkpt>
      <trkpt lat="45.79383" lon="4.29211">
        <ele>560.2</ele>
        <time>2026-01-25T12:39:25.000Z</time>
      </trkpt>
      <trkpt lat="45.79395" lon="4.29163">
        <ele>551.2</ele>
        <time>2026-01-25T12:39:55.000Z</time>
      </trkpt>
      <trkpt lat="45.79411" lon="4.2912">
        <ele>543.7</ele>
        <time>2026-01-25T12:40:25.000Z</time>
      </trkpt>
      <trkpt lat="45.79444" lon="4.29098">
        <ele>536.6</ele>
        <time>2026-01-25T12:40:55.000Z</time>
      </trkpt>
      <trkpt lat="45.79468" lon="4.29047">
        <ele>535</ele>
        <time>2026-01-25T12:41:25.000Z</time>
      </trkpt>
      <trkpt lat="45.79485" lon="4.28991">
        <ele>534.7</ele>
        <time>2026-01-25T12:41:55.000Z</time>
      </trkpt>
      <trkpt lat="45.79484" lon="4.28934">
        <ele>531.7</ele>
        <time>2026-01-25T12:42:25.000Z</time>
      </trkpt>
      <trkpt lat="45.79483" lon="4.28877">
        <ele>525.4</ele>
        <time>2026-01-25T12:42:55.000Z</time>
      </trkpt>
      <trkpt lat="45.79502" lon="4.28828">
        <ele>519.6</ele>
        <time>2026-01-25T12:43:25.000Z</time>
      </trkpt>
      <trkpt lat="45.79523" lon="4.28779">
        <ele>514.1</ele>
        <time>2026-01-25T12:43:55.000Z</time>
      </trkpt>
      <trkpt lat="45.79504" lon="4.28737">
        <ele>502.4</ele>
        <time>2026-01-25T12:44:25.000Z</time>
      </trkpt>
      <trkpt lat="45.795" lon="4.28682">
        <ele>494.1</ele>
        <time>2026-01-25T12:44:55.000Z</time>
      </trkpt>
      <trkpt lat="45.79502" lon="4.28632">
        <ele>491.9</ele>
        <time>2026-01-25T12:45:25.000Z</time>
      </trkpt>
      <trkpt lat="45.79491" lon="4.2858">
        <ele>492.7</ele>
        <time>2026-01-25T12:45:55.000Z</time>
      </trkpt>
      <trkpt lat="45.79487" lon="4.28522">
        <ele>495.5</ele>
        <time>2026-01-25T12:46:25.000Z</time>
      </trkpt>
      <trkpt lat="45.79507" lon="4.28488">
        <ele>497.5</ele>
        <time>2026-01-25T12:46:55.000Z</time>
      </trkpt>
      <trkpt lat="45.79547" lon="4.28458">
        <ele>498.6</ele>
        <time>2026-01-25T12:47:25.000Z</time>
      </trkpt>
      <trkpt lat="45.79583" lon="4.28429">
        <ele>496.7</ele>
        <time>2026-01-25T12:47:55.000Z</time>
      </trkpt>
      <trkpt lat="45.79603" lon="4.28385">
        <ele>501.8</ele>
        <time>2026-01-25T12:48:25.000Z</time>
      </trkpt>
      <trkpt lat="45.79629" lon="4.28362">
        <ele>506.8</ele>
        <time>2026-01-25T12:48:55.000Z</time>
      </trkpt>
      <trkpt lat="45.79657" lon="4.28341">
        <ele>513.3</ele>
        <time>2026-01-25T12:49:25.000Z</time>
      </trkpt>
      <trkpt lat="45.79673" lon="4.28318">
        <ele>517.6</ele>
        <time>2026-01-25T12:49:55.000Z</time>
      </trkpt>
      <trkpt lat="45.7965" lon="4.28295">
        <ele>522</ele>
        <time>2026-01-25T12:50:25.000Z</time>
      </trkpt>
      <trkpt lat="45.79665" lon="4.28258">
        <ele>526.2</ele>
        <time>2026-01-25T12:50:55.000Z</time>
      </trkpt>
      <trkpt lat="45.79679" lon="4.28232">
        <ele>532</ele>
        <time>2026-01-25T12:51:25.000Z</time>
      </trkpt>
      <trkpt lat="45.79691" lon="4.28184">
        <ele>535.3</ele>
        <time>2026-01-25T12:51:55.000Z</time>
      </trkpt>
      <trkpt lat="45.79701" lon="4.28132">
        <ele>538.3</ele>
        <time>2026-01-25T12:52:25.000Z</time>
      </trkpt>
      <trkpt lat="45.79717" lon="4.28079">
        <ele>539.5</ele>
        <time>2026-01-25T12:52:55.000Z</time>
      </trkpt>
      <trkpt lat="45.79732" lon="4.28028">
        <ele>540.1</ele>
        <time>2026-01-25T12:53:25.000Z</time>
      </trkpt>
      <trkpt lat="45.7975" lon="4.27974">
        <ele>545.5</ele>
        <time>2026-01-25T12:53:55.000Z</time>
      </trkpt>
      <trkpt lat="45.79767" lon="4.27929">
        <ele>551.1</ele>
        <time>2026-01-25T12:54:25.000Z</time>
      </trkpt>
      <trkpt lat="45.79785" lon="4.27884">
        <ele>560.9</ele>
        <time>2026-01-25T12:54:55.000Z</time>
      </trkpt>
      <trkpt lat="45.79786" lon="4.27852">
        <ele>571.8</ele>
        <time>2026-01-25T12:55:25.000Z</time>
      </trkpt>
      <trkpt lat="45.79781" lon="4.27845">
        <ele>562.7</ele>
        <time>2026-01-25T12:55:55.000Z</time>
      </trkpt>
      <trkpt lat="45.79777" lon="4.27856">
        <ele>560.1</ele>
        <time>2026-01-25T12:56:25.000Z</time>
      </trkpt>
      <trkpt lat="45.79814" lon="4.2788">
        <ele>564.5</ele>
        <time>2026-01-25T12:56:55.000Z</time>
      </trkpt>
      <trkpt lat="45.79848" lon="4.27914">
        <ele>561.9</ele>
        <time>2026-01-25T12:57:25.000Z</time>
      </trkpt>
      <trkpt lat="45.7988" lon="4.2794">
        <ele>562.5</ele>
        <time>2026-01-25T12:57:55.000Z</time>
      </trkpt>
      <trkpt lat="45.79914" lon="4.27948">
        <ele>563.3</ele>
        <time>2026-01-25T12:58:25.000Z</time>
      </trkpt>
      <trkpt lat="45.79945" lon="4.27966">
        <ele>563.2</ele>
        <time>2026-01-25T12:58:55.000Z</time>
      </trkpt>
      <trkpt lat="45.79975" lon="4.27957">
        <ele>563.8</ele>
        <time>2026-01-25T12:59:25.000Z</time>
      </trkpt>
      <trkpt lat="45.80009" lon="4.27943">
        <ele>565.1</ele>
        <time>2026-01-25T12:59:55.000Z</time>
      </trkpt>
      <trkpt lat="45.80008" lon="4.27892">
        <ele>558.5</ele>
        <time>2026-01-25T13:00:25.000Z</time>
      </trkpt>
      <trkpt lat="45.80005" lon="4.27861">
        <ele>555.1</ele>
        <time>2026-01-25T13:00:55.000Z</time>
      </trkpt>
      <trkpt lat="45.80006" lon="4.27803">
        <ele>550.1</ele>
        <time>2026-01-25T13:01:25.000Z</time>
      </trkpt>
      <trkpt lat="45.79995" lon="4.27748">
        <ele>547.9</ele>
        <time>2026-01-25T13:01:55.000Z</time>
      </trkpt>
      <trkpt lat="45.79983" lon="4.27695">
        <ele>546.4</ele>
        <time>2026-01-25T13:02:25.000Z</time>
      </trkpt>
      <trkpt lat="45.80014" lon="4.27655">
        <ele>544.6</ele>
        <time>2026-01-25T13:02:55.000Z</time>
      </trkpt>
      <trkpt lat="45.80046" lon="4.2762">
        <ele>543.9</ele>
        <time>2026-01-25T13:03:25.000Z</time>
      </trkpt>
      <trkpt lat="45.80068" lon="4.27582">
        <ele>542.7</ele>
        <time>2026-01-25T13:03:55.000Z</time>
      </trkpt>
      <trkpt lat="45.80062" lon="4.2755">
        <ele>544.1</ele>
        <time>2026-01-25T13:04:25.000Z</time>
      </trkpt>
      <trkpt lat="45.80058" lon="4.27497">
        <ele>543</ele>
        <time>2026-01-25T13:04:55.000Z</time>
      </trkpt>
      <trkpt lat="45.80055" lon="4.27437">
        <ele>546.3</ele>
        <time>2026-01-25T13:05:25.000Z</time>
      </trkpt>
      <trkpt lat="45.80055" lon="4.27377">
        <ele>547.3</ele>
        <time>2026-01-25T13:05:55.000Z</time>
      </trkpt>
      <trkpt lat="45.80059" lon="4.27319">
        <ele>546.2</ele>
        <time>2026-01-25T13:06:25.000Z</time>
      </trkpt>
      <trkpt lat="45.80052" lon="4.2726">
        <ele>547.3</ele>
        <time>2026-01-25T13:06:55.000Z</time>
      </trkpt>
      <trkpt lat="45.80038" lon="4.27204">
        <ele>545.2</ele>
        <time>2026-01-25T13:07:25.000Z</time>
      </trkpt>
      <trkpt lat="45.80036" lon="4.27142">
        <ele>543.2</ele>
        <time>2026-01-25T13:07:55.000Z</time>
      </trkpt>
      <trkpt lat="45.80034" lon="4.2708">
        <ele>542</ele>
        <time>2026-01-25T13:08:25.000Z</time>
      </trkpt>
      <trkpt lat="45.80032" lon="4.27016">
        <ele>540.4</ele>
        <time>2026-01-25T13:08:55.000Z</time>
      </trkpt>
      <trkpt lat="45.80031" lon="4.26956">
        <ele>538.9</ele>
        <time>2026-01-25T13:09:25.000Z</time>
      </trkpt>
      <trkpt lat="45.80028" lon="4.26896">
        <ele>539.1</ele>
        <time>2026-01-25T13:09:55.000Z</time>
      </trkpt>
      <trkpt lat="45.80049" lon="4.26863">
        <ele>541.3</ele>
        <time>2026-01-25T13:10:25.000Z</time>
      </trkpt>
      <trkpt lat="45.8009" lon="4.26856">
        <ele>542.7</ele>
        <time>2026-01-25T13:10:55.000Z</time>
      </trkpt>
      <trkpt lat="45.80129" lon="4.26826">
        <ele>540.7</ele>
        <time>2026-01-25T13:11:25.000Z</time>
      </trkpt>
      <trkpt lat="45.80161" lon="4.26786">
        <ele>541.6</ele>
        <time>2026-01-25T13:11:55.000Z</time>
      </trkpt>
      <trkpt lat="45.80185" lon="4.26733">
        <ele>538.1</ele>
        <time>2026-01-25T13:12:25.000Z</time>
      </trkpt>
      <trkpt lat="45.80187" lon="4.2667">
        <ele>535.6</ele>
        <time>2026-01-25T13:12:55.000Z</time>
      </trkpt>
      <trkpt lat="45.80192" lon="4.26608">
        <ele>531.8</ele>
        <time>2026-01-25T13:13:25.000Z</time>
      </trkpt>
      <trkpt lat="45.80195" lon="4.26543">
        <ele>529.7</ele>
        <time>2026-01-25T13:13:55.000Z</time>
      </trkpt>
      <trkpt lat="45.80213" lon="4.26488">
        <ele>527.7</ele>
        <time>2026-01-25T13:14:25.000Z</time>
      </trkpt>
      <trkpt lat="45.80236" lon="4.26436">
        <ele>527.3</ele>
        <time>2026-01-25T13:14:55.000Z</time>
      </trkpt>
      <trkpt lat="45.80258" lon="4.26381">
        <ele>525.6</ele>
        <time>2026-01-25T13:15:25.000Z</time>
      </trkpt>
      <trkpt lat="45.80286" lon="4.26332">
        <ele>524.1</ele>
        <time>2026-01-25T13:15:55.000Z</time>
      </trkpt>
      <trkpt lat="45.80299" lon="4.26273">
        <ele>526.1</ele>
        <time>2026-01-25T13:16:25.000Z</time>
      </trkpt>
      <trkpt lat="45.80301" lon="4.26217">
        <ele>526.4</ele>
        <time>2026-01-25T13:16:55.000Z</time>
      </trkpt>
      <trkpt lat="45.8029" lon="4.26159">
        <ele>527.8</ele>
        <time>2026-01-25T13:17:25.000Z</time>
      </trkpt>
      <trkpt lat="45.80271" lon="4.26107">
        <ele>528.3</ele>
        <time>2026-01-25T13:17:55.000Z</time>
      </trkpt>
      <trkpt lat="45.80264" lon="4.26058">
        <ele>524.4</ele>
        <time>2026-01-25T13:18:25.000Z</time>
      </trkpt>
      <trkpt lat="45.80274" lon="4.26032">
        <ele>521</ele>
        <time>2026-01-25T13:18:55.000Z</time>
      </trkpt>
      <trkpt lat="45.80259" lon="4.2598">
        <ele>515.7</ele>
        <time>2026-01-25T13:19:25.000Z</time>
      </trkpt>
      <trkpt lat="45.80235" lon="4.25931">
        <ele>506.9</ele>
        <time>2026-01-25T13:19:55.000Z</time>
      </trkpt>
      <trkpt lat="45.80197" lon="4.25898">
        <ele>507.4</ele>
        <time>2026-01-25T13:20:25.000Z</time>
      </trkpt>
      <trkpt lat="45.80164" lon="4.25889">
        <ele>505.9</ele>
        <time>2026-01-25T13:20:55.000Z</time>
      </trkpt>
      <trkpt lat="45.8016" lon="4.25831">
        <ele>499.2</ele>
        <time>2026-01-25T13:21:25.000Z</time>
      </trkpt>
      <trkpt lat="45.80122" lon="4.25801">
        <ele>499</ele>
        <time>2026-01-25T13:21:55.000Z</time>
      </trkpt>
      <trkpt lat="45.80107" lon="4.25756">
        <ele>494.2</ele>
        <time>2026-01-25T13:22:25.000Z</time>
      </trkpt>
      <trkpt lat="45.80079" lon="4.25766">
        <ele>483.4</ele>
        <time>2026-01-25T13:22:55.000Z</time>
      </trkpt>
      <trkpt lat="45.80085" lon="4.25703">
        <ele>483.6</ele>
        <time>2026-01-25T13:23:25.000Z</time>
      </trkpt>
      <trkpt lat="45.80095" lon="4.25652">
        <ele>485.8</ele>
        <time>2026-01-25T13:23:55.000Z</time>
      </trkpt>
      <trkpt lat="45.80066" lon="4.25629">
        <ele>479.2</ele>
        <time>2026-01-25T13:24:25.000Z</time>
      </trkpt>
      <trkpt lat="45.80064" lon="4.25626">
        <ele>478.6</ele>
        <time>2026-01-25T13:25:03.000Z</time>
      </trkpt>
      <trkpt lat="45.80045" lon="4.25581">
        <ele>479.2</ele>
        <time>2026-01-25T13:25:33.000Z</time>
      </trkpt>
      <trkpt lat="45.80045" lon="4.25579">
        <ele>478.8</ele>
        <time>2026-01-25T13:26:10.000Z</time>
      </trkpt>
      <trkpt lat="45.80034" lon="4.25532">
        <ele>480.7</ele>
        <time>2026-01-25T13:26:40.000Z</time>
      </trkpt>
      <trkpt lat="45.80038" lon="4.25472">
        <ele>479.2</ele>
        <time>2026-01-25T13:27:10.000Z</time>
      </trkpt>
      <trkpt lat="45.80033" lon="4.25408">
        <ele>481.5</ele>
        <time>2026-01-25T13:27:40.000Z</time>
      </trkpt>
      <trkpt lat="45.8002" lon="4.25354">
        <ele>474.8</ele>
        <time>2026-01-25T13:28:10.000Z</time>
      </trkpt>
      <trkpt lat="45.80019" lon="4.25297">
        <ele>470</ele>
        <time>2026-01-25T13:28:40.000Z</time>
      </trkpt>
      <trkpt lat="45.8" lon="4.25246">
        <ele>467.8</ele>
        <time>2026-01-25T13:29:10.000Z</time>
      </trkpt>
      <trkpt lat="45.79981" lon="4.25196">
        <ele>459.1</ele>
        <time>2026-01-25T13:29:40.000Z</time>
      </trkpt>
      <trkpt lat="45.79971" lon="4.25154">
        <ele>457.1</ele>
        <time>2026-01-25T13:30:10.000Z</time>
      </trkpt>
      <trkpt lat="45.79962" lon="4.25141">
        <ele>457.8</ele>
        <time>2026-01-25T13:30:40.000Z</time>
      </trkpt>
      <trkpt lat="45.79955" lon="4.25141">
        <ele>454.6</ele>
        <time>2026-01-25T13:31:17.000Z</time>
      </trkpt>
      <trkpt lat="45.79924" lon="4.25119">
        <ele>452.5</ele>
        <time>2026-01-25T13:31:47.000Z</time>
      </trkpt>
      <trkpt lat="45.79888" lon="4.25095">
        <ele>448.6</ele>
        <time>2026-01-25T13:32:17.000Z</time>
      </trkpt>
      <trkpt lat="45.79877" lon="4.25098">
        <ele>448</ele>
        <time>2026-01-25T13:32:47.000Z</time>
      </trkpt>
      <trkpt lat="45.79865" lon="4.25113">
        <ele>449.7</ele>
        <time>2026-01-25T13:33:17.000Z</time>
      </trkpt>
      <trkpt lat="45.79865" lon="4.25115">
        <ele>450.2</ele>
        <time>2026-01-25T13:33:57.000Z</time>
      </trkpt>
      <trkpt lat="45.7985" lon="4.25158">
        <ele>463</ele>
        <time>2026-01-25T13:34:27.000Z</time>
      </trkpt>
      <trkpt lat="45.79833" lon="4.252">
        <ele>466.2</ele>
        <time>2026-01-25T13:34:57.000Z</time>
      </trkpt>
      <trkpt lat="45.79826" lon="4.25217">
        <ele>468.8</ele>
        <time>2026-01-25T13:35:27.000Z</time>
      </trkpt>
      <trkpt lat="45.79805" lon="4.2526">
        <ele>482.3</ele>
        <time>2026-01-25T13:35:57.000Z</time>
      </trkpt>
      <trkpt lat="45.79793" lon="4.25308">
        <ele>484</ele>
        <time>2026-01-25T13:36:27.000Z</time>
      </trkpt>
      <trkpt lat="45.79785" lon="4.25334">
        <ele>486.7</ele>
        <time>2026-01-25T13:36:57.000Z</time>
      </trkpt>
      <trkpt lat="45.79784" lon="4.25335">
        <ele>486</ele>
        <time>2026-01-25T13:37:28.000Z</time>
      </trkpt>
      <trkpt lat="45.79777" lon="4.25382">
        <ele>491.6</ele>
        <time>2026-01-25T13:37:58.000Z</time>
      </trkpt>
      <trkpt lat="45.79771" lon="4.25431">
        <ele>497</ele>
        <time>2026-01-25T13:38:28.000Z</time>
      </trkpt>
      <trkpt lat="45.79771" lon="4.25455">
        <ele>498</ele>
        <time>2026-01-25T13:38:58.000Z</time>
      </trkpt>
      <trkpt lat="45.79771" lon="4.25477">
        <ele>499</ele>
        <time>2026-01-25T13:39:28.000Z</time>
      </trkpt>
      <trkpt lat="45.79768" lon="4.25515">
        <ele>501.4</ele>
        <time>2026-01-25T13:39:58.000Z</time>
      </trkpt>
      <trkpt lat="45.79769" lon="4.25528">
        <ele>502.2</ele>
        <time>2026-01-25T13:40:43.000Z</time>
      </trkpt>
      <trkpt lat="45.79751" lon="4.25543">
        <ele>503.4</ele>
        <time>2026-01-25T13:41:13.000Z</time>
      </trkpt>
      <trkpt lat="45.79718" lon="4.25511">
        <ele>510.1</ele>
        <time>2026-01-25T13:41:43.000Z</time>
      </trkpt>
      <trkpt lat="45.79684" lon="4.25478">
        <ele>514.8</ele>
        <time>2026-01-25T13:42:13.000Z</time>
      </trkpt>
      <trkpt lat="45.79649" lon="4.25457">
        <ele>515.6</ele>
        <time>2026-01-25T13:42:43.000Z</time>
      </trkpt>
      <trkpt lat="45.79632" lon="4.25407">
        <ele>518.6</ele>
        <time>2026-01-25T13:43:13.000Z</time>
      </trkpt>
      <trkpt lat="45.79602" lon="4.25419">
        <ele>517.4</ele>
        <time>2026-01-25T13:43:43.000Z</time>
      </trkpt>
      <trkpt lat="45.79562" lon="4.25419">
        <ele>512.8</ele>
        <time>2026-01-25T13:44:13.000Z</time>
      </trkpt>
      <trkpt lat="45.79545" lon="4.25359">
        <ele>508.6</ele>
        <time>2026-01-25T13:44:43.000Z</time>
      </trkpt>
      <trkpt lat="45.79526" lon="4.25299">
        <ele>506</ele>
        <time>2026-01-25T13:45:13.000Z</time>
      </trkpt>
      <trkpt lat="45.79496" lon="4.25252">
        <ele>500</ele>
        <time>2026-01-25T13:45:43.000Z</time>
      </trkpt>
      <trkpt lat="45.7946" lon="4.25214">
        <ele>496.1</ele>
        <time>2026-01-25T13:46:13.000Z</time>
      </trkpt>
      <trkpt lat="45.79423" lon="4.25183">
        <ele>492.6</ele>
        <time>2026-01-25T13:46:43.000Z</time>
      </trkpt>
      <trkpt lat="45.79389" lon="4.25145">
        <ele>488.7</ele>
        <time>2026-01-25T13:47:13.000Z</time>
      </trkpt>
      <trkpt lat="45.79357" lon="4.25106">
        <ele>485.3</ele>
        <time>2026-01-25T13:47:43.000Z</time>
      </trkpt>
      <trkpt lat="45.79326" lon="4.25063">
        <ele>478.4</ele>
        <time>2026-01-25T13:48:13.000Z</time>
      </trkpt>
      <trkpt lat="45.79294" lon="4.2502">
        <ele>472.5</ele>
        <time>2026-01-25T13:48:43.000Z</time>
      </trkpt>
      <trkpt lat="45.79262" lon="4.24977">
        <ele>468.9</ele>
        <time>2026-01-25T13:49:13.000Z</time>
      </trkpt>
      <trkpt lat="45.79232" lon="4.24928">
        <ele>466.6</ele>
        <time>2026-01-25T13:49:43.000Z</time>
      </trkpt>
      <trkpt lat="45.79206" lon="4.2488">
        <ele>463.2</ele>
        <time>2026-01-25T13:50:13.000Z</time>
      </trkpt>
      <trkpt lat="45.79181" lon="4.24827">
        <ele>462.1</ele>
        <time>2026-01-25T13:50:43.000Z</time>
      </trkpt>
      <trkpt lat="45.79161" lon="4.24771">
        <ele>462.3</ele>
        <time>2026-01-25T13:51:13.000Z</time>
      </trkpt>
      <trkpt lat="45.79137" lon="4.24715">
        <ele>460.4</ele>
        <time>2026-01-25T13:51:43.000Z</time>
      </trkpt>
      <trkpt lat="45.79106" lon="4.24665">
        <ele>458</ele>
        <time>2026-01-25T13:52:13.000Z</time>
      </trkpt>
      <trkpt lat="45.79081" lon="4.24613">
        <ele>453.8</ele>
        <time>2026-01-25T13:52:43.000Z</time>
      </trkpt>
      <trkpt lat="45.79057" lon="4.24561">
        <ele>450.2</ele>
        <time>2026-01-25T13:53:13.000Z</time>
      </trkpt>
      <trkpt lat="45.79028" lon="4.24512">
        <ele>448.4</ele>
        <time>2026-01-25T13:53:43.000Z</time>
      </trkpt>
      <trkpt lat="45.78995" lon="4.24474">
        <ele>445</ele>
        <time>2026-01-25T13:54:13.000Z</time>
      </trkpt>
      <trkpt lat="45.78971" lon="4.24423">
        <ele>442.9</ele>
        <time>2026-01-25T13:54:43.000Z</time>
      </trkpt>
      <trkpt lat="45.7896" lon="4.24363">
        <ele>439.2</ele>
        <time>2026-01-25T13:55:13.000Z</time>
      </trkpt>
      <trkpt lat="45.78924" lon="4.24328">
        <ele>435.9</ele>
        <time>2026-01-25T13:55:43.000Z</time>
      </trkpt>
      <trkpt lat="45.78892" lon="4.24283">
        <ele>429.9</ele>
        <time>2026-01-25T13:56:13.000Z</time>
      </trkpt>
      <trkpt lat="45.78851" lon="4.24261">
        <ele>425.9</ele>
        <time>2026-01-25T13:56:43.000Z</time>
      </trkpt>
      <trkpt lat="45.78806" lon="4.24252">
        <ele>423</ele>
        <time>2026-01-25T13:57:13.000Z</time>
      </trkpt>
      <trkpt lat="45.78762" lon="4.24244">
        <ele>419.5</ele>
        <time>2026-01-25T13:57:43.000Z</time>
      </trkpt>
      <trkpt lat="45.78738" lon="4.24226">
        <ele>416.1</ele>
        <time>2026-01-25T13:58:13.000Z</time>
      </trkpt>
      <trkpt lat="45.78738" lon="4.2423">
        <ele>414.1</ele>
        <time>2026-01-25T14:12:47.000Z</time>
      </trkpt>
      <trkpt lat="45.78697" lon="4.24219">
        <ele>410.9</ele>
        <time>2026-01-25T14:13:17.000Z</time>
      </trkpt>
      <trkpt lat="45.78658" lon="4.24206">
        <ele>409.3</ele>
        <time>2026-01-25T14:13:47.000Z</time>
      </trkpt>
      <trkpt lat="45.78644" lon="4.24183">
        <ele>408.7</ele>
        <time>2026-01-25T14:14:17.000Z</time>
      </trkpt>
      <trkpt lat="45.78618" lon="4.24142">
        <ele>405.8</ele>
        <time>2026-01-25T14:14:47.000Z</time>
      </trkpt>
      <trkpt lat="45.78592" lon="4.24095">
        <ele>404.1</ele>
        <time>2026-01-25T14:15:17.000Z</time>
      </trkpt>
      <trkpt lat="45.78564" lon="4.24047">
        <ele>402.9</ele>
        <time>2026-01-25T14:15:47.000Z</time>
      </trkpt>
      <trkpt lat="45.78537" lon="4.23998">
        <ele>401.6</ele>
        <time>2026-01-25T14:16:17.000Z</time>
      </trkpt>
      <trkpt lat="45.78508" lon="4.23949">
        <ele>401.4</ele>
        <time>2026-01-25T14:16:47.000Z</time>
      </trkpt>
      <trkpt lat="45.78481" lon="4.23899">
        <ele>400</ele>
        <time>2026-01-25T14:17:17.000Z</time>
      </trkpt>
      <trkpt lat="45.78453" lon="4.23849">
        <ele>399.8</ele>
        <time>2026-01-25T14:17:47.000Z</time>
      </trkpt>
      <trkpt lat="45.78424" lon="4.238">
        <ele>399.1</ele>
        <time>2026-01-25T14:18:17.000Z</time>
      </trkpt>
      <trkpt lat="45.78396" lon="4.23752">
        <ele>397.6</ele>
        <time>2026-01-25T14:18:47.000Z</time>
      </trkpt>
      <trkpt lat="45.78368" lon="4.23703">
        <ele>397.8</ele>
        <time>2026-01-25T14:19:17.000Z</time>
      </trkpt>
      <trkpt lat="45.78341" lon="4.23655">
        <ele>397.1</ele>
        <time>2026-01-25T14:19:47.000Z</time>
      </trkpt>
      <trkpt lat="45.78312" lon="4.23605">
        <ele>396.9</ele>
        <time>2026-01-25T14:20:17.000Z</time>
      </trkpt>
      <trkpt lat="45.78284" lon="4.23554">
        <ele>397.5</ele>
        <time>2026-01-25T14:20:47.000Z</time>
      </trkpt>
      <trkpt lat="45.78256" lon="4.23505">
        <ele>396.7</ele>
        <time>2026-01-25T14:21:17.000Z</time>
      </trkpt>
      <trkpt lat="45.78228" lon="4.23455">
        <ele>396.5</ele>
        <time>2026-01-25T14:21:47.000Z</time>
      </trkpt>
      <trkpt lat="45.78201" lon="4.23405">
        <ele>392.5</ele>
        <time>2026-01-25T14:22:17.000Z</time>
      </trkpt>
      <trkpt lat="45.78173" lon="4.23357">
        <ele>390.9</ele>
        <time>2026-01-25T14:22:47.000Z</time>
      </trkpt>
      <trkpt lat="45.78145" lon="4.23309">
        <ele>391.3</ele>
        <time>2026-01-25T14:23:17.000Z</time>
      </trkpt>
      <trkpt lat="45.78117" lon="4.23257">
        <ele>391.6</ele>
        <time>2026-01-25T14:23:47.000Z</time>
      </trkpt>
      <trkpt lat="45.7809" lon="4.23207">
        <ele>391.6</ele>
        <time>2026-01-25T14:24:17.000Z</time>
      </trkpt>
      <trkpt lat="45.78061" lon="4.23157">
        <ele>391.8</ele>
        <time>2026-01-25T14:24:47.000Z</time>
      </trkpt>
      <trkpt lat="45.78034" lon="4.23109">
        <ele>391.3</ele>
        <time>2026-01-25T14:25:17.000Z</time>
      </trkpt>
      <trkpt lat="45.78007" lon="4.23061">
        <ele>390.1</ele>
        <time>2026-01-25T14:25:47.000Z</time>
      </trkpt>
      <trkpt lat="45.77979" lon="4.23011">
        <ele>389.7</ele>
        <time>2026-01-25T14:26:17.000Z</time>
      </trkpt>
      <trkpt lat="45.77951" lon="4.2296">
        <ele>389.5</ele>
        <time>2026-01-25T14:26:47.000Z</time>
      </trkpt>
      <trkpt lat="45.77924" lon="4.22909">
        <ele>391.6</ele>
        <time>2026-01-25T14:27:17.000Z</time>
      </trkpt>
      <trkpt lat="45.77903" lon="4.22873">
        <ele>390.7</ele>
        <time>2026-01-25T14:27:47.000Z</time>
      </trkpt>
      <trkpt lat="45.77885" lon="4.22836">
        <ele>392.1</ele>
        <time>2026-01-25T14:28:17.000Z</time>
      </trkpt>
      <trkpt lat="45.77861" lon="4.22784">
        <ele>391.5</ele>
        <time>2026-01-25T14:28:47.000Z</time>
      </trkpt>
      <trkpt lat="45.77839" lon="4.22738">
        <ele>391.1</ele>
        <time>2026-01-25T14:29:17.000Z</time>
      </trkpt>
      <trkpt lat="45.77813" lon="4.22686">
        <ele>390.3</ele>
        <time>2026-01-25T14:29:47.000Z</time>
      </trkpt>
      <trkpt lat="45.77787" lon="4.22634">
        <ele>391.2</ele>
        <time>2026-01-25T14:30:17.000Z</time>
      </trkpt>
      <trkpt lat="45.7776" lon="4.2259">
        <ele>389.7</ele>
        <time>2026-01-25T14:30:47.000Z</time>
      </trkpt>
      <trkpt lat="45.77747" lon="4.22576">
        <ele>388.8</ele>
        <time>2026-01-25T14:31:17.000Z</time>
      </trkpt>
      <trkpt lat="45.77727" lon="4.22524">
        <ele>386.1</ele>
        <time>2026-01-25T14:31:47.000Z</time>
      </trkpt>
      <trkpt lat="45.77704" lon="4.22469">
        <ele>387.7</ele>
        <time>2026-01-25T14:32:17.000Z</time>
      </trkpt>
      <trkpt lat="45.77682" lon="4.22416">
        <ele>388.3</ele>
        <time>2026-01-25T14:32:47.000Z</time>
      </trkpt>
      <trkpt lat="45.77676" lon="4.2238">
        <ele>388</ele>
        <time>2026-01-25T14:33:17.000Z</time>
      </trkpt>
      <trkpt lat="45.77676" lon="4.22378">
        <ele>387.8</ele>
        <time>2026-01-25T14:34:29.000Z</time>
      </trkpt>
      <trkpt lat="45.77662" lon="4.22325">
        <ele>389.8</ele>
        <time>2026-01-25T14:34:59.000Z</time>
      </trkpt>
      <trkpt lat="45.77655" lon="4.22266">
        <ele>388.9</ele>
        <time>2026-01-25T14:35:29.000Z</time>
      </trkpt>
      <trkpt lat="45.77647" lon="4.22205">
        <ele>388.8</ele>
        <time>2026-01-25T14:35:59.000Z</time>
      </trkpt>
      <trkpt lat="45.77638" lon="4.22145">
        <ele>387</ele>
        <time>2026-01-25T14:36:29.000Z</time>
      </trkpt>
      <trkpt lat="45.77628" lon="4.22085">
        <ele>386.7</ele>
        <time>2026-01-25T14:36:59.000Z</time>
      </trkpt>
      <trkpt lat="45.77585" lon="4.22072">
        <ele>386.3</ele>
        <time>2026-01-25T14:37:29.000Z</time>
      </trkpt>
      <trkpt lat="45.77569" lon="4.22014">
        <ele>384.6</ele>
        <time>2026-01-25T14:37:59.000Z</time>
      </trkpt>
      <trkpt lat="45.77539" lon="4.21968">
        <ele>382.9</ele>
        <time>2026-01-25T14:38:29.000Z</time>
      </trkpt>
      <trkpt lat="45.77496" lon="4.21956">
        <ele>384.6</ele>
        <time>2026-01-25T14:38:59.000Z</time>
      </trkpt>
      <trkpt lat="45.77488" lon="4.22017">
        <ele>384.1</ele>
        <time>2026-01-25T14:39:29.000Z</time>
      </trkpt>
      <trkpt lat="45.77476" lon="4.22032">
        <ele>383.5</ele>
        <time>2026-01-25T14:39:59.000Z</time>
      </trkpt>
      <trkpt lat="45.77434" lon="4.22039">
        <ele>385.3</ele>
        <time>2026-01-25T14:40:29.000Z</time>
      </trkpt>
      <trkpt lat="45.77392" lon="4.2204">
        <ele>385.7</ele>
        <time>2026-01-25T14:40:59.000Z</time>
      </trkpt>
      <trkpt lat="45.77353" lon="4.2207">
        <ele>386.2</ele>
        <time>2026-01-25T14:41:29.000Z</time>
      </trkpt>
      <trkpt lat="45.77326" lon="4.22106">
        <ele>388.7</ele>
        <time>2026-01-25T14:41:59.000Z</time>
      </trkpt>
      <trkpt lat="45.77302" lon="4.22146">
        <ele>387.3</ele>
        <time>2026-01-25T14:42:29.000Z</time>
      </trkpt>
      <trkpt lat="45.77264" lon="4.2218">
        <ele>388.2</ele>
        <time>2026-01-25T14:42:59.000Z</time>
      </trkpt>
      <trkpt lat="45.77227" lon="4.22212">
        <ele>388.2</ele>
        <time>2026-01-25T14:43:29.000Z</time>
      </trkpt>
      <trkpt lat="45.77192" lon="4.22244">
        <ele>387.3</ele>
        <time>2026-01-25T14:43:59.000Z</time>
      </trkpt>
      <trkpt lat="45.77157" lon="4.22265">
        <ele>387.9</ele>
        <time>2026-01-25T14:44:29.000Z</time>
      </trkpt>
      <trkpt lat="45.77118" lon="4.2228">
        <ele>388.6</ele>
        <time>2026-01-25T14:44:59.000Z</time>
      </trkpt>
      <trkpt lat="45.77077" lon="4.22297">
        <ele>390.6</ele>
        <time>2026-01-25T14:45:29.000Z</time>
      </trkpt>
      <trkpt lat="45.77036" lon="4.22306">
        <ele>390.7</ele>
        <time>2026-01-25T14:45:59.000Z</time>
      </trkpt>
      <trkpt lat="45.77016" lon="4.22308">
        <ele>389.7</ele>
        <time>2026-01-25T14:46:29.000Z</time>
      </trkpt>
      <trkpt lat="45.77003" lon="4.22313">
        <ele>389.4</ele>
        <time>2026-01-25T14:46:59.000Z</time>
      </trkpt>
      <trkpt lat="45.76984" lon="4.22309">
        <ele>387.5</ele>
        <time>2026-01-25T14:47:29.000Z</time>
      </trkpt>
      <trkpt lat="45.76953" lon="4.22315">
        <ele>387.9</ele>
        <time>2026-01-25T14:47:59.000Z</time>
      </trkpt>
      <trkpt lat="45.7691" lon="4.22325">
        <ele>388.2</ele>
        <time>2026-01-25T14:48:29.000Z</time>
      </trkpt>
      <trkpt lat="45.76867" lon="4.22323">
        <ele>387.1</ele>
        <time>2026-01-25T14:48:59.000Z</time>
      </trkpt>
      <trkpt lat="45.76825" lon="4.22325">
        <ele>385.6</ele>
        <time>2026-01-25T14:49:29.000Z</time>
      </trkpt>
      <trkpt lat="45.76787" lon="4.22314">
        <ele>382</ele>
        <time>2026-01-25T14:49:59.000Z</time>
      </trkpt>
      <trkpt lat="45.7675" lon="4.22328">
        <ele>385.5</ele>
        <time>2026-01-25T14:50:29.000Z</time>
      </trkpt>
      <trkpt lat="45.76716" lon="4.22342">
        <ele>388.4</ele>
        <time>2026-01-25T14:50:59.000Z</time>
      </trkpt>
      <trkpt lat="45.76679" lon="4.22368">
        <ele>389.6</ele>
        <time>2026-01-25T14:51:29.000Z</time>
      </trkpt>
      <trkpt lat="45.76642" lon="4.22395">
        <ele>390.6</ele>
        <time>2026-01-25T14:51:59.000Z</time>
      </trkpt>
      <trkpt lat="45.76625" lon="4.22411">
        <ele>390.2</ele>
        <time>2026-01-25T14:52:29.000Z</time>
      </trkpt>
      <trkpt lat="45.76589" lon="4.2244">
        <ele>389.4</ele>
        <time>2026-01-25T14:52:59.000Z</time>
      </trkpt>
      <trkpt lat="45.76551" lon="4.22471">
        <ele>390.3</ele>
        <time>2026-01-25T14:53:29.000Z</time>
      </trkpt>
      <trkpt lat="45.76513" lon="4.22498">
        <ele>390.1</ele>
        <time>2026-01-25T14:53:59.000Z</time>
      </trkpt>
      <trkpt lat="45.76479" lon="4.22522">
        <ele>389.9</ele>
        <time>2026-01-25T14:54:29.000Z</time>
      </trkpt>
      <trkpt lat="45.76441" lon="4.2255">
        <ele>390</ele>
        <time>2026-01-25T14:54:59.000Z</time>
      </trkpt>
      <trkpt lat="45.76407" lon="4.22579">
        <ele>390.3</ele>
        <time>2026-01-25T14:55:29.000Z</time>
      </trkpt>
      <trkpt lat="45.76373" lon="4.22613">
        <ele>390.6</ele>
        <time>2026-01-25T14:55:59.000Z</time>
      </trkpt>
      <trkpt lat="45.76338" lon="4.22647">
        <ele>390.3</ele>
        <time>2026-01-25T14:56:29.000Z</time>
      </trkpt>
      <trkpt lat="45.76302" lon="4.22684">
        <ele>391</ele>
        <time>2026-01-25T14:56:59.000Z</time>
      </trkpt>
      <trkpt lat="45.76267" lon="4.2272">
        <ele>391.9</ele>
        <time>2026-01-25T14:57:29.000Z</time>
      </trkpt>
      <trkpt lat="45.7623" lon="4.22751">
        <ele>393.6</ele>
        <time>2026-01-25T14:57:59.000Z</time>
      </trkpt>
      <trkpt lat="45.76192" lon="4.22785">
        <ele>394.1</ele>
        <time>2026-01-25T14:58:29.000Z</time>
      </trkpt>
      <trkpt lat="45.76157" lon="4.2282">
        <ele>393.9</ele>
        <time>2026-01-25T14:58:59.000Z</time>
      </trkpt>
      <trkpt lat="45.76122" lon="4.2285">
        <ele>394.7</ele>
        <time>2026-01-25T14:59:29.000Z</time>
      </trkpt>
      <trkpt lat="45.76088" lon="4.22882">
        <ele>393.3</ele>
        <time>2026-01-25T14:59:59.000Z</time>
      </trkpt>
      <trkpt lat="45.76052" lon="4.22911">
        <ele>394.5</ele>
        <time>2026-01-25T15:00:29.000Z</time>
      </trkpt>
      <trkpt lat="45.7601" lon="4.22928">
        <ele>394.4</ele>
        <time>2026-01-25T15:00:59.000Z</time>
      </trkpt>
      <trkpt lat="45.75966" lon="4.22929">
        <ele>396.1</ele>
        <time>2026-01-25T15:01:29.000Z</time>
      </trkpt>
      <trkpt lat="45.75923" lon="4.22932">
        <ele>395.1</ele>
        <time>2026-01-25T15:01:59.000Z</time>
      </trkpt>
      <trkpt lat="45.75881" lon="4.22938">
        <ele>394.8</ele>
        <time>2026-01-25T15:02:29.000Z</time>
      </trkpt>
      <trkpt lat="45.7584" lon="4.22947">
        <ele>393.3</ele>
        <time>2026-01-25T15:02:59.000Z</time>
      </trkpt>
      <trkpt lat="45.75797" lon="4.22954">
        <ele>392.8</ele>
        <time>2026-01-25T15:03:29.000Z</time>
      </trkpt>
      <trkpt lat="45.75755" lon="4.22943">
        <ele>392.9</ele>
        <time>2026-01-25T15:03:59.000Z</time>
      </trkpt>
      <trkpt lat="45.75714" lon="4.2292">
        <ele>392.6</ele>
        <time>2026-01-25T15:04:29.000Z</time>
      </trkpt>
      <trkpt lat="45.75673" lon="4.229">
        <ele>393.2</ele>
        <time>2026-01-25T15:04:59.000Z</time>
      </trkpt>
      <trkpt lat="45.75632" lon="4.22883">
        <ele>393.1</ele>
        <time>2026-01-25T15:05:29.000Z</time>
      </trkpt>
      <trkpt lat="45.75592" lon="4.22867">
        <ele>391</ele>
        <time>2026-01-25T15:05:59.000Z</time>
      </trkpt>
      <trkpt lat="45.75551" lon="4.22847">
        <ele>391.3</ele>
        <time>2026-01-25T15:06:29.000Z</time>
      </trkpt>
      <trkpt lat="45.75509" lon="4.22829">
        <ele>391.9</ele>
        <time>2026-01-25T15:06:59.000Z</time>
      </trkpt>
      <trkpt lat="45.75468" lon="4.2281">
        <ele>392.5</ele>
        <time>2026-01-25T15:07:29.000Z</time>
      </trkpt>
      <trkpt lat="45.75428" lon="4.22792">
        <ele>393.9</ele>
        <time>2026-01-25T15:07:59.000Z</time>
      </trkpt>
      <trkpt lat="45.75388" lon="4.22775">
        <ele>391.8</ele>
        <time>2026-01-25T15:08:29.000Z</time>
      </trkpt>
      <trkpt lat="45.75345" lon="4.22762">
        <ele>390.8</ele>
        <time>2026-01-25T15:08:59.000Z</time>
      </trkpt>
      <trkpt lat="45.7531" lon="4.2276">
        <ele>391.2</ele>
        <time>2026-01-25T15:09:29.000Z</time>
      </trkpt>
      <trkpt lat="45.75277" lon="4.2273">
        <ele>390.1</ele>
        <time>2026-01-25T15:09:59.000Z</time>
      </trkpt>
      <trkpt lat="45.75274" lon="4.22669">
        <ele>387.8</ele>
        <time>2026-01-25T15:10:29.000Z</time>
      </trkpt>
      <trkpt lat="45.75302" lon="4.22625">
        <ele>386.9</ele>
        <time>2026-01-25T15:10:59.000Z</time>
      </trkpt>
      <trkpt lat="45.75332" lon="4.22579">
        <ele>387.1</ele>
        <time>2026-01-25T15:11:29.000Z</time>
      </trkpt>
      <trkpt lat="45.75359" lon="4.22532">
        <ele>385.3</ele>
        <time>2026-01-25T15:11:59.000Z</time>
      </trkpt>
      <trkpt lat="45.75377" lon="4.22504">
        <ele>385.6</ele>
        <time>2026-01-25T15:12:29.000Z</time>
      </trkpt>
      <trkpt lat="45.75388" lon="4.22496">
        <ele>387.3</ele>
        <time>2026-01-25T15:12:59.000Z</time>
      </trkpt>
      <trkpt lat="45.75402" lon="4.22453">
        <ele>392.1</ele>
        <time>2026-01-25T15:13:29.000Z</time>
      </trkpt>
      <trkpt lat="45.75402" lon="4.22484">
        <ele>376</ele>
        <time>2026-01-25T15:13:59.000Z</time>
      </trkpt>
      <trkpt lat="45.75403" lon="4.22482">
        <ele>373.9</ele>
        <time>2026-01-25T15:15:18.000Z</time>
      </trkpt>
      <trkpt lat="45.75392" lon="4.22452">
        <ele>380</ele>
        <time>2026-01-25T15:15:48.000Z</time>
      </trkpt>
      <trkpt lat="45.75393" lon="4.22459">
        <ele>378.6</ele>
        <time>2026-01-25T15:17:11.000Z</time>
      </trkpt>
    </trkseg>
  </trk>
</gpx>